createdAt,value
2017-08-16T00:02:04.437Z,71.11
2017-08-16T00:04:35.420Z,70.81
2017-08-16T00:07:06.422Z,70.79
2017-08-16T00:09:37.387Z,70.46
2017-08-16T00:12:08.750Z,70.75
2017-08-16T00:14:40.089Z,70.79
2017-08-16T00:17:11.432Z,70.94
2017-08-16T00:19:42.401Z,71.16
2017-08-16T00:22:13.822Z,71.12
2017-08-16T00:24:45.279Z,71.66
2017-08-16T00:27:16.224Z,71.92
2017-08-16T00:29:47.296Z,71.99
2017-08-16T00:32:18.323Z,71.85
2017-08-16T00:34:49.332Z,71.76
2017-08-16T00:37:20.386Z,72.53
2017-08-16T00:39:52.186Z,72.51
2017-08-16T00:42:23.373Z,72.90
2017-08-16T00:44:56.204Z,72.87
2017-08-16T00:47:27.626Z,72.91
2017-08-16T00:50:00.768Z,72.64
2017-08-16T00:52:32.069Z,72.76
2017-08-16T00:55:03.459Z,72.60
2017-08-16T00:57:34.817Z,72.43
2017-08-16T01:00:11.163Z,72.58
2017-08-16T01:02:42.209Z,72.61
2017-08-16T01:05:14.211Z,72.89
2017-08-16T01:07:45.229Z,72.97
2017-08-16T01:10:17.129Z,73.30
2017-08-16T01:12:48.124Z,73.89
2017-08-16T01:15:19.102Z,74.55
2017-08-16T01:17:50.076Z,75.53
2017-08-16T01:20:22.208Z,74.89
2017-08-16T01:22:54.461Z,74.48
2017-08-16T01:25:25.446Z,74.37
2017-08-16T01:27:58.168Z,74.52
2017-08-16T01:30:29.270Z,74.39
2017-08-16T01:33:00.627Z,74.45
2017-08-16T01:35:31.634Z,74.67
2017-08-16T01:38:03.658Z,74.67
2017-08-16T01:40:34.979Z,74.65
2017-08-16T01:43:05.929Z,74.95
2017-08-16T01:45:37.285Z,75.13
2017-08-16T01:48:09.765Z,75.26
2017-08-16T01:50:41.010Z,75.10
2017-08-16T01:53:11.985Z,75.38
2017-08-16T01:55:42.998Z,75.69
2017-08-16T01:58:14.850Z,75.93
2017-08-16T02:00:46.313Z,76.18
2017-08-16T02:03:17.309Z,76.09
2017-08-16T02:05:48.625Z,76.47
2017-08-16T02:08:22.228Z,76.71
2017-08-16T02:10:54.825Z,76.82
2017-08-16T02:13:25.844Z,77.07
2017-08-16T02:15:58.186Z,77.67
2017-08-16T02:18:29.178Z,77.98
2017-08-16T02:21:00.510Z,78.17
2017-08-16T02:23:32.085Z,78.02
2017-08-16T02:26:04.301Z,78.08
2017-08-16T02:28:35.607Z,78.31
2017-08-16T02:31:07.397Z,78.43
2017-08-16T02:33:38.747Z,78.71
2017-08-16T02:36:10.089Z,78.55
2017-08-16T02:38:41.582Z,78.51
2017-08-16T02:41:12.600Z,78.41
2017-08-16T02:43:43.575Z,78.58
2017-08-16T02:46:17.101Z,78.86
2017-08-16T02:48:48.461Z,79.15
2017-08-16T02:51:19.506Z,79.41
2017-08-16T02:53:51.033Z,79.54
2017-08-16T02:56:22.105Z,79.72
2017-08-16T02:58:54.213Z,79.77
2017-08-16T03:01:25.561Z,80.21
2017-08-16T03:03:58.685Z,80.16
2017-08-16T03:06:29.701Z,80.10
2017-08-16T03:09:00.982Z,79.72
2017-08-16T03:11:35.555Z,79.68
2017-08-16T03:14:08.288Z,79.89
2017-08-16T03:16:39.546Z,80.19
2017-08-16T03:19:11.141Z,80.25
2017-08-16T03:21:42.542Z,80.45
2017-08-16T03:24:14.683Z,80.65
2017-08-16T03:26:46.110Z,80.60
2017-08-16T03:29:17.151Z,80.64
2017-08-16T03:31:48.222Z,80.91
2017-08-16T03:34:19.606Z,81.13
2017-08-16T03:36:50.819Z,81.39
2017-08-16T03:39:21.893Z,81.42
2017-08-16T03:41:53.812Z,81.46
2017-08-16T03:44:25.251Z,81.41
2017-08-16T03:46:58.406Z,81.52
2017-08-16T03:49:29.641Z,81.48
2017-08-16T03:52:03.268Z,81.44
2017-08-16T03:54:34.286Z,81.32
2017-08-16T03:57:05.319Z,81.44
2017-08-16T03:59:36.674Z,81.49
2017-08-16T04:02:07.773Z,81.68
2017-08-16T04:04:38.804Z,81.66
2017-08-16T04:07:10.314Z,81.49
2017-08-16T04:09:41.383Z,81.24
2017-08-16T04:12:14.617Z,81.13
2017-08-16T04:14:45.669Z,81.08
2017-08-16T04:17:16.726Z,80.78
2017-08-16T04:19:47.762Z,80.45
2017-08-16T04:22:20.132Z,80.24
2017-08-16T04:24:51.178Z,80.01
2017-08-16T04:27:22.206Z,80.04
2017-08-16T04:29:55.508Z,79.96
2017-08-16T04:32:26.555Z,80.15
2017-08-16T04:34:59.137Z,80.04
2017-08-16T04:37:30.614Z,80.16
2017-08-16T04:40:04.147Z,80.29
2017-08-16T04:42:35.153Z,80.24
2017-08-16T04:45:06.682Z,80.30
2017-08-16T04:47:37.752Z,80.56
2017-08-16T04:50:09.847Z,80.43
2017-08-16T04:52:41.186Z,80.22
2017-08-16T04:55:12.434Z,79.99
2017-08-16T04:57:43.505Z,79.67
2017-08-16T05:00:15.900Z,79.28
2017-08-16T05:02:47.441Z,78.80
2017-08-16T05:05:18.478Z,78.32
2017-08-16T05:07:49.634Z,77.99
2017-08-16T05:10:20.723Z,77.53
2017-08-16T05:12:52.867Z,77.03
2017-08-16T05:15:24.021Z,76.32
2017-08-16T05:17:57.687Z,75.56
2017-08-16T05:20:28.723Z,74.66
2017-08-16T05:23:01.151Z,74.10
2017-08-16T05:25:32.431Z,73.67
2017-08-16T05:28:05.282Z,73.29
2017-08-16T05:30:36.359Z,73.10
2017-08-16T05:33:07.506Z,73.02
2017-08-16T05:35:38.572Z,73.17
2017-08-16T05:38:12.114Z,73.19
2017-08-16T05:40:43.167Z,73.32
2017-08-16T05:43:14.149Z,73.37
2017-08-16T05:45:45.220Z,73.47
2017-08-16T05:48:16.693Z,73.33
2017-08-16T05:50:47.695Z,72.66
2017-08-16T05:53:18.741Z,71.53
2017-08-16T05:55:50.104Z,69.91
2017-08-16T05:58:21.850Z,68.63
2017-08-16T06:00:53.141Z,67.38
2017-08-16T06:03:24.734Z,66.11
2017-08-16T06:05:57.474Z,64.89
2017-08-16T06:08:28.515Z,63.78
2017-08-16T06:11:01.871Z,62.66
2017-08-16T06:13:32.849Z,62.42
2017-08-16T06:16:04.917Z,62.05
2017-08-16T06:18:36.431Z,62.40
2017-08-16T06:21:07.459Z,62.65
2017-08-16T06:23:38.485Z,62.47
2017-08-16T06:26:10.014Z,62.45
2017-08-16T06:28:41.274Z,62.15
2017-08-16T06:31:12.301Z,61.87
2017-08-16T06:33:43.826Z,61.85
2017-08-16T06:36:15.476Z,62.18
2017-08-16T06:38:46.469Z,61.91
2017-08-16T06:41:17.922Z,61.19
2017-08-16T06:43:48.913Z,61.61
2017-08-16T06:46:20.993Z,61.20
2017-08-16T06:48:51.972Z,60.29
2017-08-16T06:51:23.026Z,59.72
2017-08-16T06:53:55.936Z,59.24
2017-08-16T06:56:26.979Z,58.58
2017-08-16T06:59:00.069Z,57.81
2017-08-16T07:01:31.132Z,57.53
2017-08-16T07:04:04.208Z,57.32
2017-08-16T07:06:35.213Z,56.55
2017-08-16T07:09:06.673Z,56.49
2017-08-16T07:11:38.009Z,56.71
2017-08-16T07:14:09.196Z,56.76
2017-08-16T07:16:40.671Z,57.26
2017-08-16T07:19:11.675Z,57.89
2017-08-16T07:21:42.653Z,58.39
2017-08-16T07:24:15.370Z,58.43
2017-08-16T07:26:46.823Z,58.36
2017-08-16T07:29:17.798Z,58.46
2017-08-16T07:31:48.949Z,57.88
2017-08-16T07:34:21.000Z,57.19
2017-08-16T07:36:52.011Z,55.50
2017-08-16T07:39:23.018Z,54.55
2017-08-16T07:41:55.088Z,54.47
2017-08-16T07:44:26.237Z,54.31
2017-08-16T07:46:59.767Z,54.02
2017-08-16T07:49:31.065Z,53.99
2017-08-16T07:52:04.185Z,53.95
2017-08-16T07:54:35.208Z,54.45
2017-08-16T07:57:06.266Z,55.13
2017-08-16T07:59:37.226Z,55.14
2017-08-16T08:02:08.534Z,55.14
2017-08-16T08:04:39.956Z,56.00
2017-08-16T08:07:10.953Z,56.81
2017-08-16T08:09:42.080Z,57.17
2017-08-16T08:12:13.851Z,56.78
2017-08-16T08:14:45.162Z,56.83
2017-08-16T08:17:16.202Z,56.25
2017-08-16T08:19:47.146Z,55.57
2017-08-16T08:22:20.254Z,55.21
2017-08-16T08:24:56.180Z,54.96
2017-08-16T08:27:30.961Z,55.50
2017-08-16T08:30:04.087Z,56.32
2017-08-16T08:32:35.102Z,55.35
2017-08-16T08:35:06.097Z,54.62
2017-08-16T08:37:37.903Z,53.56
2017-08-16T08:40:10.992Z,53.13
2017-08-16T08:42:41.971Z,52.68
2017-08-16T08:45:13.226Z,52.38
2017-08-16T08:47:44.237Z,52.14
2017-08-16T08:50:17.289Z,51.47
2017-08-16T08:52:48.582Z,50.55
2017-08-16T08:55:19.555Z,50.96
2017-08-16T08:57:50.912Z,50.77
2017-08-16T09:00:23.113Z,50.42
2017-08-16T09:02:57.160Z,49.97
2017-08-16T09:05:28.257Z,48.75
2017-08-16T09:08:07.371Z,49.32
2017-08-16T09:10:38.367Z,50.10
2017-08-16T09:13:09.648Z,49.18
2017-08-16T09:15:40.864Z,48.75
2017-08-16T09:18:13.695Z,49.08
2017-08-16T09:20:44.678Z,50.03
2017-08-16T09:23:15.969Z,48.66
2017-08-16T09:25:47.127Z,47.41
2017-08-16T09:28:18.825Z,46.96
2017-08-16T09:30:50.541Z,46.27
2017-08-16T09:33:21.702Z,46.44
2017-08-16T09:35:52.697Z,47.50
2017-08-16T09:38:23.997Z,46.60
2017-08-16T09:40:58.594Z,45.77
2017-08-16T09:43:29.584Z,45.46
2017-08-16T09:46:03.566Z,45.52
2017-08-16T09:48:34.525Z,44.74
2017-08-16T09:51:05.665Z,44.67
2017-08-16T09:53:36.917Z,45.07
2017-08-16T09:56:12.162Z,45.21
2017-08-16T09:58:44.251Z,45.03
2017-08-16T10:01:16.215Z,43.62
2017-08-16T10:03:47.448Z,42.80
2017-08-16T10:06:18.507Z,44.31
2017-08-16T10:08:49.790Z,44.40
2017-08-16T10:11:21.379Z,43.82
2017-08-16T10:13:52.387Z,43.21
2017-08-16T10:16:23.703Z,43.85
2017-08-16T10:18:58.402Z,43.24
2017-08-16T10:21:29.395Z,43.36
2017-08-16T10:24:05.008Z,42.92
2017-08-16T10:26:36.182Z,42.38
2017-08-16T10:32:45.759Z,40.93
2017-08-16T10:35:16.956Z,40.05
2017-08-16T10:37:49.500Z,39.21
2017-08-16T10:40:20.590Z,38.69
2017-08-16T10:42:52.825Z,37.96
2017-08-16T10:45:24.353Z,36.81
2017-08-16T10:48:03.088Z,35.57
2017-08-16T10:50:36.341Z,34.49
2017-08-16T10:53:07.699Z,33.17
2017-08-16T10:55:38.735Z,32.82
2017-08-16T10:58:10.554Z,31.97
2017-08-16T11:00:41.727Z,31.82
2017-08-16T11:03:13.069Z,33.84
2017-08-16T11:05:44.931Z,34.19
2017-08-16T11:08:20.993Z,34.03
2017-08-16T11:10:52.693Z,34.95
2017-08-16T11:13:23.790Z,35.41
2017-08-16T11:15:57.196Z,34.95
2017-08-16T11:18:28.861Z,35.03
2017-08-16T11:21:03.876Z,37.43
2017-08-16T11:23:34.920Z,37.83
2017-08-16T11:26:07.593Z,36.81
2017-08-16T11:28:38.901Z,35.46
2017-08-16T11:31:10.742Z,34.85
2017-08-16T11:33:41.731Z,34.61
2017-08-16T11:36:16.206Z,34.22
2017-08-16T11:38:47.565Z,33.98
2017-08-16T11:41:18.622Z,33.22
2017-08-16T11:43:50.025Z,32.84
2017-08-16T11:46:22.132Z,31.75
2017-08-16T11:48:55.690Z,30.29
2017-08-16T11:51:27.991Z,30.07
2017-08-16T11:54:00.872Z,29.39
2017-08-16T11:56:31.971Z,27.43
2017-08-16T11:59:05.273Z,25.98
2017-08-16T12:01:36.378Z,26.88
2017-08-16T12:04:09.931Z,28.15
2017-08-16T12:06:42.374Z,29.74
2017-08-16T12:09:13.369Z,30.95
2017-08-16T12:11:44.406Z,32.36
2017-08-16T12:14:16.490Z,35.47
2017-08-16T12:16:49.194Z,34.52
2017-08-16T12:19:20.183Z,33.90
2017-08-16T12:21:51.485Z,33.15
2017-08-16T12:24:23.127Z,32.10
2017-08-16T12:26:56.415Z,31.88
2017-08-16T12:29:27.590Z,31.01
2017-08-16T12:32:03.222Z,30.22
2017-08-16T12:34:34.520Z,31.32
2017-08-16T12:37:06.500Z,30.42
2017-08-16T12:39:37.959Z,29.87
2017-08-16T12:42:13.704Z,30.76
2017-08-16T12:44:44.661Z,32.40
2017-08-16T12:47:16.013Z,32.59
2017-08-16T12:49:47.138Z,31.02
2017-08-16T12:52:19.750Z,28.16
2017-08-16T12:54:52.397Z,26.87
2017-08-16T12:57:23.468Z,27.63
2017-08-16T12:59:55.673Z,29.67
2017-08-16T13:02:27.624Z,31.22
2017-08-16T13:05:05.765Z,32.95
2017-08-16T13:07:37.158Z,35.72
2017-08-16T13:10:09.826Z,35.93
2017-08-16T13:12:42.050Z,35.78
2017-08-16T13:15:13.219Z,33.71
2017-08-16T13:17:44.758Z,31.05
2017-08-16T13:20:16.033Z,27.16
2017-08-16T13:22:47.226Z,22.25
2017-08-16T13:25:18.556Z,19.65
2017-08-16T13:27:49.628Z,19.42
2017-08-16T13:30:23.213Z,21.84
2017-08-16T13:32:56.830Z,23.76
2017-08-16T13:35:33.419Z,25.77
2017-08-16T13:38:20.729Z,27.50
2017-08-16T13:40:51.739Z,28.42
2017-08-16T13:43:22.761Z,29.54
2017-08-16T13:45:55.478Z,30.12
2017-08-16T13:48:26.884Z,28.61
2017-08-16T13:51:04.642Z,27.62
2017-08-16T13:53:36.286Z,25.81
2017-08-16T13:56:08.513Z,26.01
2017-08-16T13:58:40.009Z,25.25
2017-08-16T14:01:11.269Z,22.36
2017-08-16T14:03:42.922Z,19.94
2017-08-16T14:06:14.575Z,20.41
2017-08-16T14:08:46.065Z,21.63
2017-08-16T14:11:17.067Z,22.64
2017-08-16T14:13:48.066Z,25.25
2017-08-16T14:16:20.305Z,25.55
2017-08-16T14:18:51.328Z,23.68
2017-08-16T14:21:22.315Z,22.11
2017-08-16T14:23:55.992Z,21.94
2017-08-16T14:26:28.115Z,24.26
2017-08-16T14:29:03.271Z,28.76
2017-08-16T14:31:34.286Z,29.86
2017-08-16T14:34:07.342Z,30.55
2017-08-16T14:36:38.340Z,31.27
2017-08-16T14:39:09.337Z,32.17
2017-08-16T14:41:41.246Z,32.72
2017-08-16T14:44:14.448Z,32.67
2017-08-16T14:46:45.614Z,32.49
2017-08-16T14:49:17.618Z,32.26
2017-08-16T14:51:48.601Z,31.33
2017-08-16T14:54:21.420Z,31.45
2017-08-16T14:56:52.591Z,31.41
2017-08-16T14:59:23.800Z,32.70
2017-08-16T15:01:57.398Z,34.49
2017-08-16T15:04:29.568Z,35.93
2017-08-16T15:07:03.469Z,36.79
2017-08-16T15:09:34.569Z,37.19
2017-08-16T15:12:09.959Z,37.87
2017-08-16T15:14:40.981Z,37.76
2017-08-16T15:17:12.036Z,37.96
2017-08-16T15:19:43.633Z,38.48
2017-08-16T15:22:16.756Z,38.37
2017-08-16T15:24:47.758Z,38.16
2017-08-16T15:27:19.050Z,38.00
2017-08-16T15:29:50.054Z,38.07
2017-08-16T15:32:21.907Z,39.02
2017-08-16T15:34:53.483Z,39.48
2017-08-16T15:37:24.791Z,39.25
2017-08-16T15:40:00.139Z,38.99
2017-08-16T15:42:31.469Z,39.17
2017-08-16T15:46:32.813Z,38.70
2017-08-16T15:49:04.517Z,37.71
2017-08-16T15:51:35.514Z,37.13
2017-08-16T15:54:07.785Z,36.84
2017-08-16T15:56:39.278Z,36.86
2017-08-16T15:59:10.385Z,37.33
2017-08-16T16:01:41.417Z,37.48
2017-08-16T16:04:15.699Z,38.09
2017-08-16T16:06:46.705Z,38.81
2017-08-16T16:09:17.748Z,39.38
2017-08-16T16:11:48.898Z,39.51
2017-08-16T16:14:20.201Z,39.91
2017-08-16T16:16:51.329Z,40.33
2017-08-16T16:19:22.677Z,40.50
2017-08-16T16:21:54.010Z,40.43
2017-08-16T16:24:25.105Z,40.42
2017-08-16T16:26:59.823Z,41.22
2017-08-16T16:32:12.954Z,41.16
2017-08-16T16:34:44.230Z,41.01
2017-08-16T16:37:15.217Z,41.03
2017-08-16T16:39:46.238Z,41.20
2017-08-16T16:42:19.174Z,41.26
2017-08-16T16:44:50.453Z,41.94
2017-08-16T16:47:21.547Z,41.96
2017-08-16T16:49:52.732Z,42.15
2017-08-16T16:52:24.414Z,42.06
2017-08-16T16:54:59.228Z,42.05
2017-08-16T16:57:30.334Z,42.22
2017-08-16T17:00:09.076Z,42.37
2017-08-16T17:02:40.959Z,42.02
2017-08-16T17:05:12.658Z,41.79
2017-08-16T17:07:43.718Z,41.67
2017-08-16T17:10:15.843Z,41.49
2017-08-16T17:12:48.229Z,41.79
2017-08-16T17:15:19.502Z,42.10
2017-08-16T17:17:50.487Z,42.01
2017-08-16T17:20:22.522Z,42.26
2017-08-16T17:22:53.649Z,42.67
2017-08-16T17:25:25.196Z,42.63
2017-08-16T17:27:59.224Z,42.59
2017-08-16T17:30:31.305Z,42.60
2017-08-16T17:35:43.466Z,43.54
2017-08-16T17:38:16.153Z,43.79
2017-08-16T17:40:47.399Z,44.04
2017-08-16T17:43:18.449Z,44.55
2017-08-16T17:45:49.435Z,44.61
2017-08-16T17:48:20.857Z,44.82
2017-08-16T17:50:51.915Z,45.00
2017-08-16T17:53:22.918Z,45.28
2017-08-16T17:55:55.077Z,45.61
2017-08-16T17:58:27.269Z,46.03
2017-08-16T18:01:02.795Z,46.44
2017-08-16T18:03:34.090Z,46.75
2017-08-16T18:06:07.589Z,47.11
2017-08-16T18:08:38.710Z,47.42
2017-08-16T18:11:11.026Z,48.00
2017-08-16T18:13:44.053Z,48.41
2017-08-16T18:16:15.855Z,49.09
2017-08-16T18:18:47.266Z,49.38
2017-08-16T18:21:18.575Z,49.65
2017-08-16T18:23:49.686Z,50.06
2017-08-16T18:26:23.989Z,50.79
2017-08-16T18:28:56.912Z,51.47
2017-08-16T18:31:28.148Z,51.85
2017-08-16T18:34:05.025Z,52.20
2017-08-16T18:36:36.142Z,52.49
2017-08-16T18:39:07.538Z,52.77
2017-08-16T18:41:39.063Z,53.23
2017-08-16T18:44:15.678Z,53.60
2017-08-16T18:46:46.898Z,53.79
2017-08-16T18:49:18.467Z,54.02
2017-08-16T18:51:49.617Z,54.53
2017-08-16T18:54:21.373Z,54.91
2017-08-16T18:56:52.462Z,55.35
2017-08-16T18:59:23.829Z,55.72
2017-08-16T19:02:01.044Z,55.96
2017-08-16T19:04:33.200Z,56.21
2017-08-16T19:07:05.518Z,56.45
2017-08-16T19:09:36.652Z,56.77
2017-08-16T19:12:21.287Z,57.06
2017-08-16T19:14:52.544Z,57.31
2017-08-16T19:17:33.340Z,57.56
2017-08-16T19:20:22.875Z,57.73
2017-08-16T19:23:04.296Z,57.90
2017-08-16T19:25:39.185Z,58.06
2017-08-16T19:31:04.521Z,58.63
2017-08-16T19:33:42.337Z,58.76
2017-08-16T19:36:22.235Z,58.97
2017-08-16T19:39:08.382Z,59.09
2017-08-16T19:41:56.632Z,59.30
2017-08-16T19:44:38.532Z,59.56
2017-08-16T19:47:17.890Z,59.66
2017-08-16T19:49:54.714Z,59.86
2017-08-16T19:52:29.838Z,60.03
2017-08-16T19:55:09.697Z,60.24
2017-08-16T19:57:49.104Z,60.41
2017-08-16T20:00:38.763Z,60.56
2017-08-16T20:03:16.392Z,60.78
2017-08-16T20:06:01.703Z,60.88
2017-08-16T20:08:37.737Z,60.98
2017-08-16T20:11:13.262Z,61.06
2017-08-16T20:13:51.228Z,61.25
2017-08-16T20:16:25.377Z,61.45
2017-08-16T20:19:06.093Z,61.57
2017-08-16T20:21:43.034Z,61.66
2017-08-16T20:24:17.102Z,61.83
2017-08-16T20:26:48.935Z,61.94
2017-08-16T20:29:20.446Z,62.12
2017-08-16T20:31:52.340Z,62.46
2017-08-16T20:34:23.666Z,62.57
2017-08-16T20:36:57.693Z,62.61
2017-08-16T20:39:29.561Z,62.75
2017-08-16T20:42:06.947Z,62.84
2017-08-16T20:44:38.675Z,62.77
2017-08-16T20:47:09.975Z,62.69
2017-08-16T20:49:41.175Z,62.60
2017-08-16T20:52:13.281Z,62.50
2017-08-16T20:54:44.836Z,62.46
2017-08-16T20:57:16.627Z,62.61
2017-08-16T20:59:47.977Z,62.72
2017-08-16T21:02:22.275Z,62.99
2017-08-16T21:04:53.908Z,63.22
2017-08-16T21:07:25.710Z,63.53
2017-08-16T21:09:58.523Z,63.74
2017-08-16T21:12:30.275Z,63.98
2017-08-16T21:15:06.850Z,64.12
2017-08-16T21:17:39.797Z,64.28
2017-08-16T21:20:14.543Z,64.48
2017-08-16T21:22:45.766Z,64.61
2017-08-16T21:25:17.880Z,64.74
2017-08-16T21:27:49.091Z,65.03
2017-08-16T21:30:28.519Z,65.16
2017-08-16T21:33:05.617Z,65.38
2017-08-16T21:35:38.329Z,65.60
2017-08-16T21:38:14.886Z,65.67
2017-08-16T21:40:45.922Z,65.85
2017-08-16T21:43:17.029Z,65.86
2017-08-16T21:45:48.095Z,65.69
2017-08-16T21:48:22.218Z,65.63
2017-08-16T21:50:53.273Z,65.56
2017-08-16T21:53:24.407Z,65.48
2017-08-16T21:55:56.511Z,65.75
2017-08-16T21:58:27.831Z,66.21
2017-08-16T22:02:29.390Z,66.49
2017-08-16T22:05:03.079Z,66.50
2017-08-16T22:07:34.103Z,66.54
2017-08-16T22:10:07.104Z,66.35
2017-08-16T22:12:38.096Z,66.43
2017-08-16T22:15:09.515Z,66.44
2017-08-16T22:17:40.594Z,66.40
2017-08-16T22:20:12.202Z,66.31
2017-08-16T22:23:13.928Z,66.34
2017-08-16T22:25:44.950Z,66.42
2017-08-16T22:28:19.239Z,66.40
2017-08-16T22:30:52.648Z,66.40
2017-08-16T22:33:23.661Z,66.25
2017-08-16T22:35:54.981Z,66.24
2017-08-16T22:38:26.674Z,66.20
2017-08-16T22:41:00.376Z,66.35
2017-08-16T22:43:31.356Z,66.43
2017-08-16T22:46:03.917Z,66.66
2017-08-16T22:48:35.264Z,66.86
2017-08-16T22:51:06.358Z,66.94
2017-08-16T22:53:37.852Z,67.07
2017-08-16T22:56:08.954Z,67.21
2017-08-16T22:58:39.973Z,67.39
2017-08-16T23:01:11.515Z,67.60
2017-08-16T23:03:43.494Z,67.65
2017-08-16T23:06:16.205Z,67.55
2017-08-16T23:08:48.642Z,67.46
2017-08-16T23:11:19.734Z,67.46
2017-08-16T23:13:50.849Z,67.47
2017-08-16T23:16:23.253Z,67.86
2017-08-16T23:18:55.554Z,67.94
2017-08-16T23:21:26.619Z,68.15
2017-08-16T23:24:02.855Z,68.25
2017-08-16T23:26:34.052Z,68.26
2017-08-16T23:29:05.265Z,68.47
2017-08-16T23:31:36.822Z,69.33
2017-08-16T23:34:10.204Z,70.21
2017-08-16T23:36:41.361Z,70.95
2017-08-16T23:39:12.726Z,71.18
2017-08-16T23:41:43.941Z,71.41
2017-08-16T23:44:15.805Z,71.63
2017-08-16T23:46:47.165Z,71.82
2017-08-16T23:49:18.331Z,71.94
2017-08-16T23:51:49.350Z,72.01
2017-08-16T23:54:21.255Z,71.88
2017-08-16T23:56:52.603Z,71.61
2017-08-16T23:59:24.051Z,71.39
